Aérodrome :
LOGIN :

S'inscrire | Disclaimer

   EN    FR    IT 

 










Légende :    VFR   VFR Marginal   IFR   IFR Intensif   IFR Très Intensif
Visi : 
Plafond : 
>= 8 km
>= 3000ft
5 à 8 km
1000 à 3000 ft
1500m à 5 km
500 à 1000 ft
800 à 1500m
200 à 500 ft
< 800m
< 200 ft
Symboles :   Orages  Brouillard  Fortes neiges  Fortes précipitations  Vent > 20 kt
SIGMETs :   Divers  Orages  Givrage  Turbulence  Onde Orograph.  Cendres Volcan.







- Altitude de l'aérodrome : -15 ft
- Code IATA : RTM


EHRD - Rotterdam Zestienhoven

DERNIER METAR :
  • 140755Z AUTO 24018G31KT 210V270 3600 +DZRA SCT015CB BKN018 BKN022 04/02 Q0990 TEMPO 27020G30KT 6000 SHRASNGS SCT020CB

METARs EXPIRÉS :
  • 140725Z AUTO 25016KT 9999 -RADZ FEW015CB SCT025 BKN030 05/02 Q0990 TEMPO 27020G30KT 6000 SHRASNGS SCT020CB
  • 140655Z AUTO 25018G28KT 220V280 9999 -RA FEW014 FEW015CB SCT020 BKN026 05/02 Q0990 RERA REDZ TEMPO 27020G30KT 6000 SHRASNGS SCT020CB
  • 140625Z AUTO 25015KT 220V280 9999 FEW015CB BKN043 BKN048 05/02 Q0990 TEMPO 27020G30KT 6000 SHRASNGS SCT020CB
  • 140555Z AUTO 25014KT 220V290 9999 SCT024 BKN028 BKN031 05/01 Q0990 NOSIG
  • 140525Z AUTO 27015G26KT 230V310 9999 FEW021 BKN024 BKN032 05/01 Q0990 NOSIG

TAF TAF EHRD
Valide du 14 à 06h jusqu'au 15 à 12h UTC


140521Z 1406/1512 26016KT 9999 SCT020
TEMPO 1406/1415 27020G30KT 4500 SHRASNGS SCT018CB BKN020
BECMG 1413/1416 21010KT
PROB40
TEMPO 1415/1512 24013G23KT 4500 SHRASNGS SCT018CB BKN020
BECMG 1418/1421 6000 BKN012
TEMPO 1421/1509 2000 BR BKN005
Pas de NOTAMs connus pour ce terrain.



MET'MAP, la Météo Aéronautique d'un coup d'oeil ! - Copyright ORBIFLY Décembre 2007 - Disclaimer

ORBIFLY MET'MAP TEAM :

Programmation & Développement : Alexandra Zaïnal
Conception & Développement : Baudouin d'Aumeries
Co-Programmation & Développement : Marc-Olivier Méhu
Soutien technique & logistique : Manuel Goepfert

Contact : metmap@orbifly.com




SOURCES & CREDITS :

   NOAA